createdAt,value
2019-01-11T00:00:17.653Z,41.30
2019-01-11T00:02:51.374Z,41.20
2019-01-11T00:05:23.517Z,41.30
2019-01-11T00:07:55.739Z,41.20
2019-01-11T00:10:27.915Z,41.40
2019-01-11T00:13:00.027Z,41.20
2019-01-11T00:15:33.128Z,41.40
2019-01-11T00:18:05.262Z,41.40
2019-01-11T00:20:37.415Z,41.30
2019-01-11T00:23:10.922Z,41.40
2019-01-11T00:25:43.196Z,41.40
2019-01-11T00:28:15.454Z,41.50
2019-01-11T00:30:47.586Z,41.50
2019-01-11T00:33:19.848Z,41.50
2019-01-11T00:35:51.990Z,41.60
2019-01-11T00:38:24.119Z,41.50
2019-01-11T00:40:56.235Z,41.50
2019-01-11T00:43:29.326Z,41.60
2019-01-11T00:46:01.460Z,41.60
2019-01-11T00:48:33.564Z,41.60
2019-01-11T00:51:05.792Z,41.90
2019-01-11T00:53:37.916Z,41.70
2019-01-11T00:56:10.121Z,41.70
2019-01-11T00:58:42.265Z,41.70
2019-01-11T01:01:14.370Z,41.70
2019-01-11T01:03:46.631Z,41.50
2019-01-11T01:06:18.764Z,41.50
2019-01-11T01:08:50.880Z,41.50
2019-01-11T01:11:23.088Z,41.50
2019-01-11T01:13:55.235Z,41.60
2019-01-11T01:16:27.337Z,41.60
2019-01-11T01:18:59.446Z,41.70
2019-01-11T01:21:31.607Z,41.70
2019-01-11T01:24:04.867Z,41.80
2019-01-11T01:26:37.003Z,41.70
2019-01-11T01:29:09.136Z,41.70
2019-01-11T01:31:41.448Z,41.90
2019-01-11T01:34:13.554Z,42.00
2019-01-11T01:36:45.776Z,41.90
2019-01-11T01:39:17.891Z,41.90
2019-01-11T01:41:50.033Z,42.00
2019-01-11T01:44:22.149Z,41.90
2019-01-11T01:46:54.311Z,42.10
2019-01-11T01:49:27.397Z,42.10
2019-01-11T01:51:59.571Z,42.00
2019-01-11T01:54:31.679Z,42.00
2019-01-11T01:57:03.816Z,41.90
2019-01-11T01:59:35.935Z,41.80
2019-01-11T02:02:08.202Z,41.80
2019-01-11T02:04:40.419Z,41.70
2019-01-11T02:07:12.855Z,41.70
2019-01-11T02:09:45.044Z,41.80
2019-01-11T02:12:17.187Z,41.80
2019-01-11T02:14:49.360Z,41.80
2019-01-11T02:17:21.509Z,42.00
2019-01-11T02:19:53.624Z,41.90
2019-01-11T02:22:25.788Z,42.00
2019-01-11T02:24:58.041Z,42.00
2019-01-11T02:27:30.175Z,42.20
2019-01-11T02:30:02.333Z,42.20
2019-01-11T02:32:34.553Z,42.00
2019-01-11T02:35:06.679Z,42.00
2019-01-11T02:37:38.818Z,41.90
2019-01-11T02:40:10.998Z,41.90
2019-01-11T02:42:43.153Z,41.80
2019-01-11T02:45:18.860Z,42.00
2019-01-11T02:47:51.965Z,42.70
2019-01-11T02:50:24.076Z,42.00
2019-01-11T02:52:56.302Z,42.00
2019-01-11T02:55:28.592Z,42.00
2019-01-11T02:58:00.824Z,42.00
2019-01-11T03:00:32.949Z,42.00
2019-01-11T03:03:05.301Z,42.00
2019-01-11T03:05:37.502Z,42.10
2019-01-11T03:08:09.653Z,42.00
2019-01-11T03:10:41.771Z,42.20
2019-01-11T03:13:13.925Z,42.20
2019-01-11T03:15:47.190Z,42.20
2019-01-11T03:18:19.475Z,42.20
2019-01-11T03:20:51.588Z,42.20
2019-01-11T03:23:23.833Z,42.20
2019-01-11T03:25:55.948Z,42.20
2019-01-11T03:28:28.085Z,42.30
2019-01-11T03:31:03.383Z,42.30
2019-01-11T03:33:35.522Z,42.70
2019-01-11T03:36:07.637Z,42.40
2019-01-11T03:38:39.778Z,42.20
2019-01-11T03:41:11.890Z,42.40
2019-01-11T03:43:44.043Z,42.50
2019-01-11T03:46:16.159Z,42.30
2019-01-11T03:48:48.305Z,42.30
2019-01-11T03:51:20.421Z,42.20
2019-01-11T03:53:52.588Z,42.20
2019-01-11T03:56:24.708Z,42.20
2019-01-11T03:58:56.846Z,42.90
2019-01-11T04:01:29.060Z,42.30
2019-01-11T04:04:01.988Z,42.30
2019-01-11T04:06:34.159Z,42.50
2019-01-11T04:09:10.030Z,42.60
2019-01-11T04:11:42.144Z,42.50
2019-01-11T04:14:14.301Z,42.40
2019-01-11T04:16:46.437Z,42.40
2019-01-11T04:19:18.619Z,42.40
2019-01-11T04:22:09.650Z,42.40
2019-01-11T04:24:57.836Z,42.40
2019-01-11T04:27:29.948Z,42.40
2019-01-11T04:30:02.203Z,42.40
2019-01-11T04:32:34.386Z,42.40
2019-01-11T04:35:07.604Z,42.40
2019-01-11T04:37:40.906Z,42.60
2019-01-11T04:40:15.207Z,42.70
2019-01-11T04:42:47.342Z,42.90
2019-01-11T04:45:19.685Z,42.80
2019-01-11T04:47:51.800Z,42.70
2019-01-11T04:50:25.006Z,42.70
2019-01-11T04:52:57.122Z,42.70
2019-01-11T04:55:29.259Z,42.60
2019-01-11T04:58:01.373Z,42.50
2019-01-11T05:00:33.517Z,42.40
2019-01-11T05:03:05.805Z,42.30
2019-01-11T05:05:37.948Z,42.40
2019-01-11T05:08:10.059Z,42.30
2019-01-11T05:10:42.198Z,43.00
2019-01-11T05:13:32.423Z,42.40
2019-01-11T05:16:04.569Z,42.30
2019-01-11T05:18:36.685Z,42.40
2019-01-11T05:21:08.829Z,42.40
2019-01-11T05:23:40.965Z,42.50
2019-01-11T05:26:13.098Z,42.60
2019-01-11T05:28:45.215Z,42.50
2019-01-11T05:31:17.427Z,42.70
2019-01-11T05:33:49.585Z,42.70
2019-01-11T05:36:21.732Z,42.60
2019-01-11T05:38:53.839Z,42.60
2019-01-11T05:41:25.986Z,42.50
2019-01-11T05:43:58.176Z,42.80
2019-01-11T05:46:30.321Z,42.80
2019-01-11T05:49:02.442Z,42.90
2019-01-11T05:51:34.581Z,42.90
2019-01-11T05:54:06.706Z,43.00
2019-01-11T05:56:39.105Z,43.10
2019-01-11T05:59:11.235Z,42.90
2019-01-11T06:01:43.386Z,42.80
2019-01-11T06:04:49.756Z,42.80
2019-01-11T06:07:52.990Z,42.80
2019-01-11T06:10:25.119Z,42.70
2019-01-11T06:12:57.255Z,42.60
2019-01-11T06:15:29.384Z,42.70
2019-01-11T06:18:01.597Z,42.80
2019-01-11T06:20:33.727Z,42.70
2019-01-11T06:23:05.939Z,42.80
2019-01-11T06:25:38.091Z,42.70
2019-01-11T06:28:10.243Z,42.80
2019-01-11T06:30:42.465Z,42.80
2019-01-11T06:33:14.632Z,42.80
2019-01-11T06:35:46.750Z,43.00
2019-01-11T06:38:18.992Z,43.00
2019-01-11T06:40:51.105Z,43.10
2019-01-11T06:43:23.394Z,43.10
2019-01-11T06:45:55.524Z,43.10
2019-01-11T06:48:38.856Z,43.10
2019-01-11T06:51:11.276Z,43.30
2019-01-11T06:53:43.501Z,43.30
2019-01-11T06:56:15.619Z,43.10
2019-01-11T06:58:47.765Z,43.30
2019-01-11T07:01:19.963Z,43.30
2019-01-11T07:03:52.292Z,43.20
2019-01-11T07:06:24.442Z,43.10
2019-01-11T07:08:56.735Z,43.20
2019-01-11T07:11:28.940Z,43.70
2019-01-11T07:14:01.090Z,43.10
2019-01-11T07:16:33.229Z,43.10
2019-01-11T07:19:05.919Z,43.10
2019-01-11T07:21:38.927Z,43.20
2019-01-11T07:24:11.085Z,43.10
2019-01-11T07:26:43.230Z,43.10
2019-01-11T07:29:18.983Z,43.10
2019-01-11T07:31:51.110Z,43.30
2019-01-11T07:34:23.360Z,43.30
2019-01-11T07:36:56.721Z,43.20
2019-01-11T07:39:32.882Z,43.20
2019-01-11T07:42:05.277Z,43.40
2019-01-11T07:44:37.544Z,43.30
2019-01-11T07:47:09.695Z,43.30
2019-01-11T07:49:41.846Z,43.40
2019-01-11T07:52:13.970Z,43.40
2019-01-11T07:54:46.135Z,43.40
2019-01-11T07:57:18.635Z,43.50
2019-01-11T07:59:50.775Z,43.50
2019-01-11T08:02:22.955Z,43.40
2019-01-11T08:04:55.191Z,43.40
2019-01-11T08:07:27.357Z,43.50
2019-01-11T08:09:59.594Z,43.50
2019-01-11T08:12:31.729Z,43.50
2019-01-11T08:15:04.285Z,43.60
2019-01-11T08:17:36.484Z,43.60
2019-01-11T08:20:08.828Z,43.80
2019-01-11T08:22:41.905Z,43.90
2019-01-11T08:25:14.199Z,44.10
2019-01-11T08:27:46.321Z,44.00
2019-01-11T08:30:18.543Z,44.00
2019-01-11T08:32:50.850Z,44.20
2019-01-11T08:35:23.089Z,44.00
2019-01-11T08:37:55.338Z,43.90
2019-01-11T08:40:27.578Z,44.10
2019-01-11T08:42:59.970Z,44.30
2019-01-11T08:45:32.141Z,44.40
2019-01-11T08:48:04.286Z,44.50
2019-01-11T08:50:36.668Z,44.50
2019-01-11T08:53:08.946Z,44.20
2019-01-11T08:55:41.132Z,44.40
2019-01-11T08:58:13.448Z,44.20
2019-01-11T09:00:46.671Z,44.50
2019-01-11T09:03:20.032Z,44.50
2019-01-11T09:05:53.167Z,44.50
2019-01-11T09:08:25.451Z,44.50
2019-01-11T09:10:57.704Z,44.40
2019-01-11T09:13:31.392Z,44.30
2019-01-11T09:16:03.771Z,44.30
2019-01-11T09:18:54.825Z,44.30
2019-01-11T09:21:26.986Z,44.40
2019-01-11T09:23:59.212Z,44.20
2019-01-11T09:26:31.387Z,44.30
2019-01-11T09:29:03.535Z,44.50
2019-01-11T09:31:35.862Z,44.60
2019-01-11T09:34:08.152Z,44.50
2019-01-11T09:36:40.412Z,44.50
2019-01-11T09:39:12.639Z,44.50
2019-01-11T09:41:44.798Z,44.40
2019-01-11T09:44:16.938Z,44.50
2019-01-11T09:46:49.098Z,44.50
2019-01-11T09:49:21.240Z,44.50
2019-01-11T09:51:53.434Z,44.50
2019-01-11T09:54:25.577Z,44.50
2019-01-11T09:56:57.805Z,44.60
2019-01-11T09:59:35.069Z,44.60
2019-01-11T10:02:22.148Z,44.60
2019-01-11T10:04:54.465Z,44.60
2019-01-11T10:07:28.932Z,44.80
2019-01-11T10:10:01.048Z,44.90
2019-01-11T10:12:33.265Z,45.00
2019-01-11T10:15:07.085Z,45.00
2019-01-11T10:17:39.384Z,44.90
2019-01-11T10:20:12.895Z,45.00
2019-01-11T10:22:45.156Z,44.80
2019-01-11T10:25:17.394Z,44.80
2019-01-11T10:27:49.992Z,44.80
2019-01-11T10:30:23.727Z,44.80
2019-01-11T10:32:55.938Z,45.00
2019-01-11T10:35:28.309Z,45.20
2019-01-11T10:38:00.460Z,45.20
2019-01-11T10:40:32.665Z,45.40
2019-01-11T10:43:04.820Z,45.20
2019-01-11T10:45:37.043Z,45.00
2019-01-11T10:48:09.263Z,45.10
2019-01-11T10:50:41.392Z,45.00
2019-01-11T10:53:13.821Z,45.00
2019-01-11T10:55:46.029Z,45.20
2019-01-11T10:58:18.188Z,45.10
2019-01-11T11:00:50.316Z,45.00
2019-01-11T11:03:22.569Z,45.20
2019-01-11T11:05:55.006Z,45.00
2019-01-11T11:08:27.200Z,45.10
2019-01-11T11:10:59.412Z,45.00
2019-01-11T11:13:31.551Z,45.00
2019-01-11T11:16:03.881Z,45.00
2019-01-11T11:18:36.288Z,45.10
2019-01-11T11:21:08.449Z,45.10
2019-01-11T11:23:40.675Z,45.30
2019-01-11T11:26:12.828Z,45.10
2019-01-11T11:28:44.983Z,45.10
2019-01-11T11:31:17.122Z,45.40
2019-01-11T11:33:50.835Z,45.40
2019-01-11T11:36:26.072Z,45.20
2019-01-11T11:38:58.385Z,45.40
2019-01-11T11:41:30.588Z,45.40
2019-01-11T11:44:02.784Z,45.40
2019-01-11T11:46:36.303Z,45.40
2019-01-11T11:49:08.528Z,45.60
2019-01-11T11:51:41.411Z,45.40
2019-01-11T11:54:13.955Z,45.50
2019-01-11T11:56:47.291Z,45.60
2019-01-11T11:59:19.526Z,45.60
2019-01-11T12:01:52.494Z,45.50
2019-01-11T12:04:24.716Z,45.40
2019-01-11T12:06:56.986Z,45.70
2019-01-11T12:09:29.167Z,45.70
2019-01-11T12:12:01.297Z,45.50
2019-01-11T12:14:33.461Z,45.70
2019-01-11T12:17:05.685Z,45.60
2019-01-11T12:19:37.851Z,45.80
2019-01-11T12:22:21.965Z,45.90
2019-01-11T12:24:54.472Z,45.90
2019-01-11T12:27:26.778Z,45.70
2019-01-11T12:29:58.944Z,45.70
2019-01-11T12:32:31.282Z,45.50
2019-01-11T12:35:03.440Z,45.70
2019-01-11T12:37:35.671Z,45.60
2019-01-11T12:40:10.084Z,45.70
2019-01-11T12:42:42.245Z,45.60
2019-01-11T12:45:15.382Z,45.60
2019-01-11T12:47:47.517Z,45.60
2019-01-11T12:50:27.574Z,45.50
2019-01-11T12:52:59.724Z,45.50
2019-01-11T12:55:31.940Z,45.60
2019-01-11T12:58:04.172Z,45.60
2019-01-11T13:00:36.337Z,45.50
2019-01-11T13:03:08.470Z,45.40
2019-01-11T13:05:40.705Z,45.40
2019-01-11T13:08:12.951Z,45.40
2019-01-11T13:10:46.089Z,45.60
2019-01-11T13:13:18.234Z,45.60
2019-01-11T13:15:50.430Z,45.80
2019-01-11T13:18:22.568Z,45.60
2019-01-11T13:20:54.721Z,45.70
2019-01-11T13:23:27.261Z,45.60
2019-01-11T13:25:59.449Z,45.50
2019-01-11T13:28:31.655Z,45.50
2019-01-11T13:31:03.884Z,45.50
2019-01-11T13:33:36.182Z,45.50
2019-01-11T13:36:12.361Z,45.60
2019-01-11T13:38:44.520Z,45.50
2019-01-11T13:41:16.788Z,45.60
2019-01-11T13:43:49.172Z,45.60
2019-01-11T13:46:21.327Z,45.50
2019-01-11T13:48:53.536Z,45.60
2019-01-11T13:51:25.699Z,45.70
2019-01-11T13:53:57.937Z,45.80
2019-01-11T13:56:30.162Z,45.90
2019-01-11T13:59:02.327Z,45.80
2019-01-11T14:01:34.561Z,45.90
2019-01-11T14:04:06.778Z,45.70
2019-01-11T14:06:38.978Z,45.60
2019-01-11T14:09:11.356Z,45.90
2019-01-11T14:11:43.485Z,45.70
2019-01-11T14:14:15.733Z,45.60
2019-01-11T14:16:48.020Z,45.70
2019-01-11T14:19:20.177Z,45.00
2019-01-11T14:21:52.372Z,46.50
2019-01-11T14:24:24.550Z,45.70
2019-01-11T14:26:56.710Z,45.70
2019-01-11T14:29:28.943Z,45.80
2019-01-11T14:32:01.081Z,46.00
2019-01-11T14:34:33.411Z,46.10
2019-01-11T14:37:05.560Z,45.90
2019-01-11T14:39:37.783Z,45.80
2019-01-11T14:42:09.978Z,45.80
2019-01-11T14:44:42.201Z,45.90
2019-01-11T14:47:14.339Z,46.10
2019-01-11T14:49:46.535Z,46.00
2019-01-11T14:52:20.541Z,45.90
2019-01-11T14:54:52.505Z,46.20
2019-01-11T14:57:24.644Z,46.10
2019-01-11T14:59:56.792Z,46.00
2019-01-11T15:02:28.922Z,46.00
2019-01-11T15:05:01.311Z,46.00
2019-01-11T15:07:33.507Z,46.00
2019-01-11T15:10:07.464Z,46.00
2019-01-11T15:12:39.685Z,46.00
2019-01-11T15:15:11.917Z,45.90
2019-01-11T15:17:44.072Z,46.00
2019-01-11T15:20:18.988Z,46.00
2019-01-11T15:22:51.191Z,46.00
2019-01-11T15:25:23.366Z,45.90
2019-01-11T15:27:56.763Z,45.90
2019-01-11T15:30:28.954Z,45.90
2019-01-11T15:33:01.102Z,45.90
2019-01-11T15:35:33.475Z,46.10
2019-01-11T15:38:06.011Z,46.10
2019-01-11T15:40:38.413Z,47.60
2019-01-11T15:43:10.652Z,47.10
2019-01-11T15:45:42.801Z,46.80
2019-01-11T15:48:19.928Z,46.80
2019-01-11T15:50:59.021Z,46.60
2019-01-11T15:53:38.990Z,46.50
2019-01-11T15:56:13.079Z,46.50
2019-01-11T15:58:45.199Z,46.40
2019-01-11T16:01:17.349Z,46.60
2019-01-11T16:03:49.851Z,46.60
2019-01-11T16:06:36.429Z,46.60
2019-01-11T16:09:56.207Z,46.50
2019-01-11T16:13:24.391Z,46.40
2019-01-11T16:16:34.148Z,46.30
2019-01-11T16:19:07.221Z,46.20
2019-01-11T16:21:39.450Z,46.10
2019-01-11T16:24:11.587Z,46.10
2019-01-11T16:26:43.767Z,46.50
2019-01-11T16:29:15.897Z,46.20
2019-01-11T16:31:48.051Z,46.30
2019-01-11T16:34:20.187Z,46.30
2019-01-11T16:36:53.911Z,46.30
2019-01-11T16:39:26.052Z,46.30
2019-01-11T16:41:58.202Z,46.40
2019-01-11T16:44:30.324Z,46.30
2019-01-11T16:47:02.484Z,46.40
2019-01-11T16:49:34.718Z,46.50
2019-01-11T16:52:06.881Z,46.40
2019-01-11T16:54:39.003Z,46.30
2019-01-11T16:57:11.176Z,46.30
2019-01-11T16:59:43.310Z,46.40
2019-01-11T17:02:15.464Z,46.40
2019-01-11T17:04:47.607Z,46.40
2019-01-11T17:07:19.778Z,46.50
2019-01-11T17:09:51.984Z,46.50
2019-01-11T17:12:24.211Z,46.50
2019-01-11T17:14:56.343Z,46.60
2019-01-11T17:17:28.585Z,46.40
2019-01-11T17:20:00.715Z,46.40
2019-01-11T17:22:32.874Z,46.80
2019-01-11T17:25:05.621Z,46.70
2019-01-11T17:27:37.816Z,46.70
2019-01-11T17:30:18.525Z,46.70
2019-01-11T17:32:50.687Z,46.80
2019-01-11T17:35:22.892Z,46.70
2019-01-11T17:37:55.108Z,46.70
2019-01-11T17:40:27.242Z,46.80
2019-01-11T17:42:59.560Z,47.00
2019-01-11T17:45:31.793Z,47.20
2019-01-11T17:48:04.067Z,47.00
2019-01-11T17:50:36.336Z,47.00
2019-01-11T17:53:08.578Z,47.20
2019-01-11T17:55:40.782Z,47.10
2019-01-11T17:58:13.170Z,47.00
2019-01-11T18:00:45.339Z,46.90
2019-01-11T18:03:17.531Z,47.00
2019-01-11T18:05:49.670Z,47.00
2019-01-11T18:08:21.845Z,47.20
2019-01-11T18:10:53.972Z,47.10
2019-01-11T18:13:26.146Z,47.00
2019-01-11T18:15:58.386Z,46.90
2019-01-11T18:18:30.666Z,46.80
2019-01-11T18:21:02.872Z,46.90
2019-01-11T18:23:35.263Z,46.90
2019-01-11T18:26:07.441Z,46.80
2019-01-11T18:28:39.643Z,46.80
2019-01-11T18:31:11.811Z,46.80
2019-01-11T18:33:43.975Z,46.80
2019-01-11T18:36:16.205Z,46.80
2019-01-11T18:38:48.370Z,46.70
2019-01-11T18:41:20.635Z,46.80
2019-01-11T18:43:52.819Z,46.90
2019-01-11T18:46:25.233Z,46.90
2019-01-11T18:48:57.532Z,46.80
2019-01-11T18:51:29.782Z,47.00
2019-01-11T18:54:03.196Z,46.90
2019-01-11T18:56:35.452Z,47.00
2019-01-11T18:59:07.747Z,47.00
2019-01-11T19:01:39.963Z,47.10
2019-01-11T19:04:12.355Z,46.80
2019-01-11T19:06:44.633Z,46.80
2019-01-11T19:09:16.856Z,46.90
2019-01-11T19:11:49.119Z,46.90
2019-01-11T19:14:21.349Z,46.80
2019-01-11T19:16:53.726Z,46.80
2019-01-11T19:19:25.890Z,47.00
2019-01-11T19:21:58.485Z,46.90
2019-01-11T19:24:30.844Z,46.80
2019-01-11T19:27:03.152Z,46.80
2019-01-11T19:29:35.472Z,46.80
2019-01-11T19:32:07.777Z,46.80
2019-01-11T19:34:40.025Z,46.90
2019-01-11T19:37:12.310Z,46.90
2019-01-11T19:39:44.574Z,46.90
2019-01-11T19:42:16.825Z,47.00
2019-01-11T19:44:49.121Z,47.20
2019-01-11T19:47:21.312Z,47.10
2019-01-11T19:49:53.545Z,47.00
2019-01-11T19:52:25.794Z,47.00
2019-01-11T19:54:58.039Z,47.20
2019-01-11T19:57:30.223Z,47.10
2019-01-11T20:00:02.602Z,47.90
2019-01-11T20:02:35.142Z,47.30
2019-01-11T20:05:07.484Z,47.20
2019-01-11T20:07:39.714Z,47.00
2019-01-11T20:10:16.440Z,47.10
2019-01-11T20:12:48.625Z,47.20
2019-01-11T20:15:21.003Z,47.10
2019-01-11T20:17:53.329Z,47.00
2019-01-11T20:20:26.518Z,47.00
2019-01-11T20:23:02.356Z,47.10
2019-01-11T20:25:32.878Z,47.20
2019-01-11T20:28:05.085Z,47.20
2019-01-11T20:30:37.283Z,47.20
2019-01-11T20:33:09.450Z,47.20
2019-01-11T20:35:41.650Z,47.20
2019-01-11T20:38:13.792Z,47.40
2019-01-11T20:40:45.990Z,47.30
2019-01-11T20:43:18.192Z,47.40
2019-01-11T20:45:50.355Z,47.40
2019-01-11T20:48:22.504Z,47.50
2019-01-11T20:50:54.877Z,47.50
2019-01-11T20:53:27.206Z,47.30
2019-01-11T20:55:59.490Z,47.30
2019-01-11T20:58:31.630Z,47.20
2019-01-11T21:01:05.328Z,47.20
2019-01-11T21:03:37.468Z,47.20
2019-01-11T21:06:09.593Z,47.30
2019-01-11T21:08:41.921Z,48.00
2019-01-11T21:11:14.048Z,47.20
2019-01-11T21:13:46.194Z,47.30
2019-01-11T21:16:18.385Z,47.20
2019-01-11T21:18:53.868Z,47.90
2019-01-11T21:21:25.965Z,47.20
2019-01-11T21:23:58.126Z,47.20
2019-01-11T21:26:30.275Z,47.10
2019-01-11T21:29:02.554Z,47.20
2019-01-11T21:31:34.753Z,47.30
2019-01-11T21:34:06.899Z,47.20
2019-01-11T21:36:39.024Z,47.20
2019-01-11T21:39:11.182Z,47.40
2019-01-11T21:41:43.297Z,47.50
2019-01-11T21:44:15.474Z,47.50
2019-01-11T21:46:47.602Z,47.50
2019-01-11T21:49:19.785Z,47.60
2019-01-11T21:51:51.915Z,47.50
2019-01-11T21:54:24.089Z,47.70
2019-01-11T21:56:56.209Z,47.50
2019-01-11T21:59:28.565Z,47.60
2019-01-11T22:02:00.720Z,47.70
2019-01-11T22:04:32.870Z,47.50
2019-01-11T22:07:05.102Z,47.50
2019-01-11T22:09:37.261Z,47.40
2019-01-11T22:12:09.395Z,47.50
2019-01-11T22:14:41.685Z,47.50
2019-01-11T22:17:14.048Z,47.50
2019-01-11T22:19:46.194Z,47.50
2019-01-11T22:22:18.320Z,47.50
2019-01-11T22:24:50.499Z,47.50
2019-01-11T22:27:22.635Z,47.50
2019-01-11T22:29:54.908Z,47.40
2019-01-11T22:32:28.185Z,47.40
2019-01-11T22:35:00.453Z,47.50
2019-01-11T22:37:32.579Z,47.50
2019-01-11T22:40:05.645Z,47.50
2019-01-11T22:42:37.768Z,47.50
2019-01-11T22:45:14.774Z,47.70
2019-01-11T22:47:46.904Z,47.70
2019-01-11T22:50:19.122Z,47.60
2019-01-11T22:52:52.410Z,47.70
2019-01-11T22:55:24.873Z,47.60
2019-01-11T22:57:57.069Z,47.50
2019-01-11T23:00:44.707Z,47.50
2019-01-11T23:03:29.339Z,47.50
2019-01-11T23:07:07.316Z,47.50
2019-01-11T23:10:12.061Z,47.50
2019-01-11T23:13:02.840Z,47.40
2019-01-11T23:15:42.055Z,47.50
2019-01-11T23:18:20.661Z,47.50
2019-01-11T23:20:57.709Z,47.50
2019-01-11T23:23:29.867Z,47.70
2019-01-11T23:26:02.020Z,47.70
2019-01-11T23:28:34.248Z,47.70
2019-01-11T23:31:06.366Z,47.60
2019-01-11T23:33:38.581Z,47.50
2019-01-11T23:36:10.713Z,47.60
2019-01-11T23:38:43.043Z,47.70
2019-01-11T23:41:15.233Z,47.70
2019-01-11T23:43:47.541Z,47.80
2019-01-11T23:46:19.665Z,47.80
2019-01-11T23:48:51.875Z,47.90
2019-01-11T23:51:24.008Z,47.70
2019-01-11T23:53:56.158Z,47.70
2019-01-11T23:56:28.344Z,47.60
2019-01-11T23:59:00.493Z,47.60
